sensor_id;sensor_type;location;lat;lon;timestamp;temperature;humidity
27258;DHT22;62045;49.986;8.672;2022-11-03T00:00:43;18.20;63.90
27258;DHT22;62045;49.986;8.672;2022-11-03T00:05:43;18.20;64.70
27258;DHT22;62045;49.986;8.672;2022-11-03T00:10:44;18.10;63.80
27258;DHT22;62045;49.986;8.672;2022-11-03T00:15:49;18.10;63.80
27258;DHT22;62045;49.986;8.672;2022-11-03T00:20:55;18.10;63.90
27258;DHT22;62045;49.986;8.672;2022-11-03T00:26:03;18.10;63.90
27258;DHT22;62045;49.986;8.672;2022-11-03T00:31:08;18.10;64.00
27258;DHT22;62045;49.986;8.672;2022-11-03T00:36:11;18.00;64.80
27258;DHT22;62045;49.986;8.672;2022-11-03T00:41:12;18.00;64.00
27258;DHT22;62045;49.986;8.672;2022-11-03T00:46:15;18.00;64.00
27258;DHT22;62045;49.986;8.672;2022-11-03T00:51:17;18.00;64.00
27258;DHT22;62045;49.986;8.672;2022-11-03T00:56:20;18.00;64.10
27258;DHT22;62045;49.986;8.672;2022-11-03T01:01:24;18.00;64.10
27258;DHT22;62045;49.986;8.672;2022-11-03T01:06:25;17.90;64.00
27258;DHT22;62045;49.986;8.672;2022-11-03T01:11:25;17.90;64.00
27258;DHT22;62045;49.986;8.672;2022-11-03T01:16:28;17.90;64.00
27258;DHT22;62045;49.986;8.672;2022-11-03T01:21:29;17.90;64.00
27258;DHT22;62045;49.986;8.672;2022-11-03T01:26:30;17.90;64.10
27258;DHT22;62045;49.986;8.672;2022-11-03T01:31:32;17.90;64.00
27258;DHT22;62045;49.986;8.672;2022-11-03T01:36:33;17.90;64.00
27258;DHT22;62045;49.986;8.672;2022-11-03T01:41:33;17.90;64.10
27258;DHT22;62045;49.986;8.672;2022-11-03T01:46:38;17.90;64.00
27258;DHT22;62045;49.986;8.672;2022-11-03T01:51:44;17.90;64.10
27258;DHT22;62045;49.986;8.672;2022-11-03T01:56:49;17.90;64.00
27258;DHT22;62045;49.986;8.672;2022-11-03T02:01:52;17.90;64.00
27258;DHT22;62045;49.986;8.672;2022-11-03T02:06:58;17.90;64.00
27258;DHT22;62045;49.986;8.672;2022-11-03T02:12:02;17.90;64.00
27258;DHT22;62045;49.986;8.672;2022-11-03T02:17:06;17.90;64.00
27258;DHT22;62045;49.986;8.672;2022-11-03T02:22:24;17.90;64.00
27258;DHT22;62045;49.986;8.672;2022-11-03T02:27:27;17.90;64.00
27258;DHT22;62045;49.986;8.672;2022-11-03T02:32:31;17.90;63.90
27258;DHT22;62045;49.986;8.672;2022-11-03T02:37:34;17.90;63.80
27258;DHT22;62045;49.986;8.672;2022-11-03T02:42:40;17.90;64.20
27258;DHT22;62045;49.986;8.672;2022-11-03T02:47:42;17.90;63.90
27258;DHT22;62045;49.986;8.672;2022-11-03T02:52:44;17.80;63.80
27258;DHT22;62045;49.986;8.672;2022-11-03T02:57:49;17.80;63.90
27258;DHT22;62045;49.986;8.672;2022-11-03T03:02:57;17.80;64.00
27258;DHT22;62045;49.986;8.672;2022-11-03T03:08:04;17.80;64.00
27258;DHT22;62045;49.986;8.672;2022-11-03T03:13:10;17.80;64.00
27258;DHT22;62045;49.986;8.672;2022-11-03T03:18:19;17.80;64.00
27258;DHT22;62045;49.986;8.672;2022-11-03T03:23:22;17.70;64.00
27258;DHT22;62045;49.986;8.672;2022-11-03T03:28:31;17.70;64.00
27258;DHT22;62045;49.986;8.672;2022-11-03T03:33:33;17.70;64.00
27258;DHT22;62045;49.986;8.672;2022-11-03T03:38:37;17.80;64.00
27258;DHT22;62045;49.986;8.672;2022-11-03T03:43:41;17.70;63.90
27258;DHT22;62045;49.986;8.672;2022-11-03T03:48:41;17.70;63.90
27258;DHT22;62045;49.986;8.672;2022-11-03T03:53:42;17.70;64.00
27258;DHT22;62045;49.986;8.672;2022-11-03T03:58:44;17.60;64.00
27258;DHT22;62045;49.986;8.672;2022-11-03T04:03:45;17.60;64.00
27258;DHT22;62045;49.986;8.672;2022-11-03T04:08:46;17.70;64.10
27258;DHT22;62045;49.986;8.672;2022-11-03T04:13:48;17.60;64.00
27258;DHT22;62045;49.986;8.672;2022-11-03T04:18:48;17.60;64.00
27258;DHT22;62045;49.986;8.672;2022-11-03T04:23:49;17.60;64.00
27258;DHT22;62045;49.986;8.672;2022-11-03T04:28:52;17.60;64.00
27258;DHT22;62045;49.986;8.672;2022-11-03T04:33:53;17.70;64.00
27258;DHT22;62045;49.986;8.672;2022-11-03T04:38:54;17.60;63.90
27258;DHT22;62045;49.986;8.672;2022-11-03T04:43:56;17.70;63.90
27258;DHT22;62045;49.986;8.672;2022-11-03T04:48:58;17.60;63.80
27258;DHT22;62045;49.986;8.672;2022-11-03T04:54:02;17.60;63.90
27258;DHT22;62045;49.986;8.672;2022-11-03T04:59:10;17.60;63.80
27258;DHT22;62045;49.986;8.672;2022-11-03T05:04:12;17.70;63.90
27258;DHT22;62045;49.986;8.672;2022-11-03T05:09:22;17.70;63.80
27258;DHT22;62045;49.986;8.672;2022-11-03T05:14:26;17.70;63.80
27258;DHT22;62045;49.986;8.672;2022-11-03T05:19:28;17.70;63.90
27258;DHT22;62045;49.986;8.672;2022-11-03T05:24:30;17.60;63.80
27258;DHT22;62045;49.986;8.672;2022-11-03T05:29:35;17.60;63.80
27258;DHT22;62045;49.986;8.672;2022-11-03T05:34:39;17.60;64.70
27258;DHT22;62045;49.986;8.672;2022-11-03T05:39:43;17.60;63.90
27258;DHT22;62045;49.986;8.672;2022-11-03T05:44:46;17.60;64.00
27258;DHT22;62045;49.986;8.672;2022-11-03T05:49:48;17.70;65.30
27258;DHT22;62045;49.986;8.672;2022-11-03T05:54:51;17.80;66.20
27258;DHT22;62045;49.986;8.672;2022-11-03T05:59:54;17.90;66.90
27258;DHT22;62045;49.986;8.672;2022-11-03T06:04:55;17.90;67.30
27258;DHT22;62045;49.986;8.672;2022-11-03T06:09:59;18.00;67.00
27258;DHT22;62045;49.986;8.672;2022-11-03T06:15:06;18.00;66.80
27258;DHT22;62045;49.986;8.672;2022-11-03T06:20:15;18.10;66.90
27258;DHT22;62045;49.986;8.672;2022-11-03T06:25:23;18.10;66.70
27258;DHT22;62045;49.986;8.672;2022-11-03T06:30:28;18.10;66.50
27258;DHT22;62045;49.986;8.672;2022-11-03T06:35:29;18.20;66.40
27258;DHT22;62045;49.986;8.672;2022-11-03T06:40:33;18.20;66.30
27258;DHT22;62045;49.986;8.672;2022-11-03T06:45:36;18.30;66.30
27258;DHT22;62045;49.986;8.672;2022-11-03T06:50:37;18.30;66.30
27258;DHT22;62045;49.986;8.672;2022-11-03T06:55:39;18.30;66.30
27258;DHT22;62045;49.986;8.672;2022-11-03T07:00:41;18.30;66.30
27258;DHT22;62045;49.986;8.672;2022-11-03T07:05:43;18.30;66.20
27258;DHT22;62045;49.986;8.672;2022-11-03T07:10:44;18.30;66.20
27258;DHT22;62045;49.986;8.672;2022-11-03T07:15:46;18.20;66.20
27258;DHT22;62045;49.986;8.672;2022-11-03T07:20:47;18.30;66.20
27258;DHT22;62045;49.986;8.672;2022-11-03T07:25:52;18.30;66.20
27258;DHT22;62045;49.986;8.672;2022-11-03T07:30:54;18.30;66.20
27258;DHT22;62045;49.986;8.672;2022-11-03T07:35:56;18.30;66.60
27258;DHT22;62045;49.986;8.672;2022-11-03T07:40:57;18.30;66.80
27258;DHT22;62045;49.986;8.672;2022-11-03T07:46:01;18.30;67.00
27258;DHT22;62045;49.986;8.672;2022-11-03T07:51:11;18.30;66.80
27258;DHT22;62045;49.986;8.672;2022-11-03T07:56:18;18.30;66.80
27258;DHT22;62045;49.986;8.672;2022-11-03T08:01:25;18.30;66.70
27258;DHT22;62045;49.986;8.672;2022-11-03T08:06:26;18.30;66.80
27258;DHT22;62045;49.986;8.672;2022-11-03T08:11:27;18.30;66.90
27258;DHT22;62045;49.986;8.672;2022-11-03T08:16:29;18.30;66.80
27258;DHT22;62045;49.986;8.672;2022-11-03T08:21:30;18.30;66.60
27258;DHT22;62045;49.986;8.672;2022-11-03T08:26:31;18.40;66.50
27258;DHT22;62045;49.986;8.672;2022-11-03T08:31:33;18.40;66.40
27258;DHT22;62045;49.986;8.672;2022-11-03T08:36:33;18.40;66.40
27258;DHT22;62045;49.986;8.672;2022-11-03T08:41:34;18.40;66.40
27258;DHT22;62045;49.986;8.672;2022-11-03T08:46:36;18.40;66.40
27258;DHT22;62045;49.986;8.672;2022-11-03T08:51:37;18.40;66.40
27258;DHT22;62045;49.986;8.672;2022-11-03T08:56:38;18.40;66.20
27258;DHT22;62045;49.986;8.672;2022-11-03T09:01:41;18.30;66.00
27258;DHT22;62045;49.986;8.672;2022-11-03T09:06:41;18.30;66.70
27258;DHT22;62045;49.986;8.672;2022-11-03T09:11:42;18.20;65.60
27258;DHT22;62045;49.986;8.672;2022-11-03T09:16:47;18.20;65.50
27258;DHT22;62045;49.986;8.672;2022-11-03T09:21:48;18.20;65.20
27258;DHT22;62045;49.986;8.672;2022-11-03T09:26:48;18.20;64.70
27258;DHT22;62045;49.986;8.672;2022-11-03T09:31:50;18.10;63.60
27258;DHT22;62045;49.986;8.672;2022-11-03T09:36:51;18.10;63.00
27258;DHT22;62045;49.986;8.672;2022-11-03T09:41:52;18.10;62.70
27258;DHT22;62045;49.986;8.672;2022-11-03T09:46:57;18.10;62.50
27258;DHT22;62045;49.986;8.672;2022-11-03T09:51:59;18.10;62.20
27258;DHT22;62045;49.986;8.672;2022-11-03T09:57:08;18.10;62.30
27258;DHT22;62045;49.986;8.672;2022-11-03T10:02:18;18.10;62.50
27258;DHT22;62045;49.986;8.672;2022-11-03T10:07:20;18.10;62.80
27258;DHT22;62045;49.986;8.672;2022-11-03T10:12:21;18.10;63.00
27258;DHT22;62045;49.986;8.672;2022-11-03T10:17:25;18.00;63.10
27258;DHT22;62045;49.986;8.672;2022-11-03T10:22:27;17.90;63.20
27258;DHT22;62045;49.986;8.672;2022-11-03T10:27:28;17.90;63.30
27258;DHT22;62045;49.986;8.672;2022-11-03T10:32:30;17.90;63.30
27258;DHT22;62045;49.986;8.672;2022-11-03T10:37:31;18.00;63.30
27258;DHT22;62045;49.986;8.672;2022-11-03T10:42:32;18.00;63.10
27258;DHT22;62045;49.986;8.672;2022-11-03T10:47:34;18.10;63.00
27258;DHT22;62045;49.986;8.672;2022-11-03T10:52:34;18.10;62.90
27258;DHT22;62045;49.986;8.672;2022-11-03T10:57:35;18.10;62.80
27258;DHT22;62045;49.986;8.672;2022-11-03T11:02:40;18.00;62.90
27258;DHT22;62045;49.986;8.672;2022-11-03T11:07:43;18.00;63.10
27258;DHT22;62045;49.986;8.672;2022-11-03T11:13:03;17.90;63.20
27258;DHT22;62045;49.986;8.672;2022-11-03T11:18:06;17.90;64.00
27258;DHT22;62045;49.986;8.672;2022-11-03T11:28:45;18.00;64.00
27258;DHT22;62045;49.986;8.672;2022-11-03T11:33:48;18.10;65.70
27258;DHT22;62045;49.986;8.672;2022-11-03T11:38:58;18.10;64.90
27258;DHT22;62045;49.986;8.672;2022-11-03T11:49:34;18.20;64.30
27258;DHT22;62045;49.986;8.672;2022-11-03T11:54:35;18.20;64.50
27258;DHT22;62045;49.986;8.672;2022-11-03T11:59:36;18.20;64.00
27258;DHT22;62045;49.986;8.672;2022-11-03T12:04:38;18.20;64.00
27258;DHT22;62045;49.986;8.672;2022-11-03T12:09:39;18.20;64.00
27258;DHT22;62045;49.986;8.672;2022-11-03T12:14:40;18.20;63.90
27258;DHT22;62045;49.986;8.672;2022-11-03T12:19:43;18.30;64.00
27258;DHT22;62045;49.986;8.672;2022-11-03T12:24:48;18.20;63.90
27258;DHT22;62045;49.986;8.672;2022-11-03T12:29:49;18.20;64.00
27258;DHT22;62045;49.986;8.672;2022-11-03T12:34:51;18.10;63.90
27258;DHT22;62045;49.986;8.672;2022-11-03T12:39:51;18.10;64.00
27258;DHT22;62045;49.986;8.672;2022-11-03T12:44:52;18.00;64.00
27258;DHT22;62045;49.986;8.672;2022-11-03T12:49:54;18.00;64.20
27258;DHT22;62045;49.986;8.672;2022-11-03T12:54:55;18.00;64.20
27258;DHT22;62045;49.986;8.672;2022-11-03T12:59:56;18.00;64.20
27258;DHT22;62045;49.986;8.672;2022-11-03T13:04:58;18.00;64.40
27258;DHT22;62045;49.986;8.672;2022-11-03T13:09:58;18.00;64.40
27258;DHT22;62045;49.986;8.672;2022-11-03T13:15:00;18.00;64.30
27258;DHT22;62045;49.986;8.672;2022-11-03T13:20:03;18.00;64.30
27258;DHT22;62045;49.986;8.672;2022-11-03T13:25:05;17.90;64.00
27258;DHT22;62045;49.986;8.672;2022-11-03T13:30:07;17.90;64.00
27258;DHT22;62045;49.986;8.672;2022-11-03T13:35:10;17.90;63.90
27258;DHT22;62045;49.986;8.672;2022-11-03T13:40:12;17.90;64.70
27258;DHT22;62045;49.986;8.672;2022-11-03T13:45:13;17.80;63.80
27258;DHT22;62045;49.986;8.672;2022-11-03T13:50:15;17.80;63.80
27258;DHT22;62045;49.986;8.672;2022-11-03T13:55:16;17.90;64.70
27258;DHT22;62045;49.986;8.672;2022-11-03T14:00:17;17.80;63.70
27258;DHT22;62045;49.986;8.672;2022-11-03T14:05:19;17.80;64.00
27258;DHT22;62045;49.986;8.672;2022-11-03T14:10:19;17.80;64.70
27258;DHT22;62045;49.986;8.672;2022-11-03T14:15:20;17.90;65.10
27258;DHT22;62045;49.986;8.672;2022-11-03T14:20:22;18.00;64.90
27258;DHT22;62045;49.986;8.672;2022-11-03T14:25:23;18.10;64.90
27258;DHT22;62045;49.986;8.672;2022-11-03T14:30:24;18.10;64.90
27258;DHT22;62045;49.986;8.672;2022-11-03T14:35:26;18.10;64.80
27258;DHT22;62045;49.986;8.672;2022-11-03T14:40:26;18.10;65.90
27258;DHT22;62045;49.986;8.672;2022-11-03T14:45:27;18.20;66.30
27258;DHT22;62045;49.986;8.672;2022-11-03T14:50:29;18.20;65.70
27258;DHT22;62045;49.986;8.672;2022-11-03T14:55:30;18.20;65.50
27258;DHT22;62045;49.986;8.672;2022-11-03T15:00:30;18.20;65.40
27258;DHT22;62045;49.986;8.672;2022-11-03T15:05:32;18.10;65.30
27258;DHT22;62045;49.986;8.672;2022-11-03T15:10:33;18.10;65.30
27258;DHT22;62045;49.986;8.672;2022-11-03T15:15:34;18.00;65.20
27258;DHT22;62045;49.986;8.672;2022-11-03T15:20:36;18.00;65.20
27258;DHT22;62045;49.986;8.672;2022-11-03T15:25:37;18.00;65.20
27258;DHT22;62045;49.986;8.672;2022-11-03T15:30:38;18.00;65.20
27258;DHT22;62045;49.986;8.672;2022-11-03T15:35:40;18.00;65.20
27258;DHT22;62045;49.986;8.672;2022-11-03T15:40:41;18.00;65.10
27258;DHT22;62045;49.986;8.672;2022-11-03T15:45:42;17.90;65.00
27258;DHT22;62045;49.986;8.672;2022-11-03T15:50:44;18.00;65.10
27258;DHT22;62045;49.986;8.672;2022-11-03T15:55:44;18.00;65.00
27258;DHT22;62045;49.986;8.672;2022-11-03T16:00:45;18.00;64.90
27258;DHT22;62045;49.986;8.672;2022-11-03T16:05:47;18.00;64.80
27258;DHT22;62045;49.986;8.672;2022-11-03T16:10:48;18.00;64.90
27258;DHT22;62045;49.986;8.672;2022-11-03T16:15:48;17.90;64.80
27258;DHT22;62045;49.986;8.672;2022-11-03T16:20:51;17.90;65.00
27258;DHT22;62045;49.986;8.672;2022-11-03T16:25:52;17.90;65.10
27258;DHT22;62045;49.986;8.672;2022-11-03T16:30:53;18.00;65.10
27258;DHT22;62045;49.986;8.672;2022-11-03T16:35:56;18.10;65.00
27258;DHT22;62045;49.986;8.672;2022-11-03T16:40:57;18.10;64.80
27258;DHT22;62045;49.986;8.672;2022-11-03T16:45:58;18.10;64.70
27258;DHT22;62045;49.986;8.672;2022-11-03T16:51:00;18.00;64.60
27258;DHT22;62045;49.986;8.672;2022-11-03T16:56:00;18.00;64.70
27258;DHT22;62045;49.986;8.672;2022-11-03T17:01:01;17.90;64.60
27258;DHT22;62045;49.986;8.672;2022-11-03T17:06:04;17.90;64.60
27258;DHT22;62045;49.986;8.672;2022-11-03T17:11:04;17.80;64.50
27258;DHT22;62045;49.986;8.672;2022-11-03T17:16:05;17.80;64.60
27258;DHT22;62045;49.986;8.672;2022-11-03T17:21:07;17.80;64.60
27258;DHT22;62045;49.986;8.672;2022-11-03T17:26:08;17.80;64.60
27258;DHT22;62045;49.986;8.672;2022-11-03T17:31:09;17.80;64.60
27258;DHT22;62045;49.986;8.672;2022-11-03T17:36:13;17.80;64.50
27258;DHT22;62045;49.986;8.672;2022-11-03T17:41:14;17.80;64.50
27258;DHT22;62045;49.986;8.672;2022-11-03T17:46:14;17.90;64.50
27258;DHT22;62045;49.986;8.672;2022-11-03T17:51:16;17.80;64.50
27258;DHT22;62045;49.986;8.672;2022-11-03T17:56:17;17.80;64.60
27258;DHT22;62045;49.986;8.672;2022-11-03T18:01:22;17.80;64.60
27258;DHT22;62045;49.986;8.672;2022-11-03T18:06:25;17.80;64.60
27258;DHT22;62045;49.986;8.672;2022-11-03T18:11:27;17.80;64.60
27258;DHT22;62045;49.986;8.672;2022-11-03T18:16:29;17.80;64.50
27258;DHT22;62045;49.986;8.672;2022-11-03T18:21:32;17.80;64.40
27258;DHT22;62045;49.986;8.672;2022-11-03T18:26:33;17.80;64.40
27258;DHT22;62045;49.986;8.672;2022-11-03T18:31:36;17.80;64.40
27258;DHT22;62045;49.986;8.672;2022-11-03T18:36:38;17.80;64.40
27258;DHT22;62045;49.986;8.672;2022-11-03T18:41:39;17.80;64.40
27258;DHT22;62045;49.986;8.672;2022-11-03T18:46:40;17.80;64.40
27258;DHT22;62045;49.986;8.672;2022-11-03T18:51:45;17.80;64.40
27258;DHT22;62045;49.986;8.672;2022-11-03T18:56:47;17.80;64.30
27258;DHT22;62045;49.986;8.672;2022-11-03T19:01:48;17.80;64.20
27258;DHT22;62045;49.986;8.672;2022-11-03T19:06:50;17.80;64.80
27258;DHT22;62045;49.986;8.672;2022-11-03T19:11:55;17.90;65.80
27258;DHT22;62045;49.986;8.672;2022-11-03T19:16:57;18.00;65.80
27258;DHT22;62045;49.986;8.672;2022-11-03T19:21:59;17.90;65.70
27258;DHT22;62045;49.986;8.672;2022-11-03T19:27:02;17.80;65.80
27258;DHT22;62045;49.986;8.672;2022-11-03T19:32:04;17.80;65.90
27258;DHT22;62045;49.986;8.672;2022-11-03T19:37:09;17.70;65.80
27258;DHT22;62045;49.986;8.672;2022-11-03T19:42:12;17.70;65.90
27258;DHT22;62045;49.986;8.672;2022-11-03T19:47:16;17.70;66.00
27258;DHT22;62045;49.986;8.672;2022-11-03T19:52:19;17.70;66.00
27258;DHT22;62045;49.986;8.672;2022-11-03T19:57:21;17.60;66.00
27258;DHT22;62045;49.986;8.672;2022-11-03T20:02:22;17.60;66.00
27258;DHT22;62045;49.986;8.672;2022-11-03T20:07:24;17.60;66.40
27258;DHT22;62045;49.986;8.672;2022-11-03T20:12:24;17.60;66.10
27258;DHT22;62045;49.986;8.672;2022-11-03T20:17:25;17.60;66.10
27258;DHT22;62045;49.986;8.672;2022-11-03T20:22:29;17.60;66.00
27258;DHT22;62045;49.986;8.672;2022-11-03T20:27:31;17.70;65.90
27258;DHT22;62045;49.986;8.672;2022-11-03T20:32:32;17.80;65.70
27258;DHT22;62045;49.986;8.672;2022-11-03T20:37:34;17.70;65.60
27258;DHT22;62045;49.986;8.672;2022-11-03T20:42:35;17.80;65.70
27258;DHT22;62045;49.986;8.672;2022-11-03T20:47:36;17.70;65.60
27258;DHT22;62045;49.986;8.672;2022-11-03T20:52:39;17.70;65.60
27258;DHT22;62045;49.986;8.672;2022-11-03T20:57:40;17.70;65.80
27258;DHT22;62045;49.986;8.672;2022-11-03T21:02:42;17.60;65.60
27258;DHT22;62045;49.986;8.672;2022-11-03T21:07:44;17.60;65.70
27258;DHT22;62045;49.986;8.672;2022-11-03T21:12:45;17.60;65.70
27258;DHT22;62045;49.986;8.672;2022-11-03T21:17:46;17.60;65.80
27258;DHT22;62045;49.986;8.672;2022-11-03T21:22:48;17.60;65.80
27258;DHT22;62045;49.986;8.672;2022-11-03T21:27:49;17.70;65.90
27258;DHT22;62045;49.986;8.672;2022-11-03T21:32:50;17.70;65.90
27258;DHT22;62045;49.986;8.672;2022-11-03T21:37:52;17.70;65.80
27258;DHT22;62045;49.986;8.672;2022-11-03T21:42:52;17.60;65.70
27258;DHT22;62045;49.986;8.672;2022-11-03T21:47:53;17.60;65.80
27258;DHT22;62045;49.986;8.672;2022-11-03T21:52:56;17.60;65.80
27258;DHT22;62045;49.986;8.672;2022-11-03T21:57:57;17.60;65.90
27258;DHT22;62045;49.986;8.672;2022-11-03T22:02:58;17.60;65.90
27258;DHT22;62045;49.986;8.672;2022-11-03T22:08:00;17.50;66.00
27258;DHT22;62045;49.986;8.672;2022-11-03T22:13:00;17.50;66.00
27258;DHT22;62045;49.986;8.672;2022-11-03T22:18:02;17.50;66.00
27258;DHT22;62045;49.986;8.672;2022-11-03T22:23:04;17.50;66.00
27258;DHT22;62045;49.986;8.672;2022-11-03T22:28:04;17.40;66.00
27258;DHT22;62045;49.986;8.672;2022-11-03T22:33:05;17.50;66.10
27258;DHT22;62045;49.986;8.672;2022-11-03T22:38:09;17.40;66.10
27258;DHT22;62045;49.986;8.672;2022-11-03T22:43:09;17.40;66.10
27258;DHT22;62045;49.986;8.672;2022-11-03T22:48:10;17.40;66.20
27258;DHT22;62045;49.986;8.672;2022-11-03T22:53:12;17.40;66.20
27258;DHT22;62045;49.986;8.672;2022-11-03T22:58:13;17.40;66.30
27258;DHT22;62045;49.986;8.672;2022-11-03T23:03:13;17.30;66.30
27258;DHT22;62045;49.986;8.672;2022-11-03T23:08:15;17.30;66.30
27258;DHT22;62045;49.986;8.672;2022-11-03T23:13:16;17.30;66.30
27258;DHT22;62045;49.986;8.672;2022-11-03T23:18:17;17.30;66.40
27258;DHT22;62045;49.986;8.672;2022-11-03T23:23:19;17.30;66.40
27258;DHT22;62045;49.986;8.672;2022-11-03T23:28:20;17.30;66.40
27258;DHT22;62045;49.986;8.672;2022-11-03T23:33:20;17.30;66.40
27258;DHT22;62045;49.986;8.672;2022-11-03T23:38:22;17.30;66.40
27258;DHT22;62045;49.986;8.672;2022-11-03T23:43:23;17.30;66.50
27258;DHT22;62045;49.986;8.672;2022-11-03T23:48:24;17.30;66.40
27258;DHT22;62045;49.986;8.672;2022-11-03T23:53:26;17.30;66.50
27258;DHT22;62045;49.986;8.672;2022-11-03T23:58:26;17.30;66.40
